sensor_id;sensor_type;location;lat;lon;timestamp;pressure;altitude;pressure_sealevel;temperature;humidity
39593;BME280;25286;48.870;9.084;2022-10-17T00:01:02;98525.00;;;15.23;100.00
39593;BME280;25286;48.870;9.084;2022-10-17T00:03:27;98527.03;;;15.33;100.00
39593;BME280;25286;48.870;9.084;2022-10-17T00:05:53;98516.53;;;15.35;100.00
39593;BME280;25286;48.870;9.084;2022-10-17T00:08:19;98529.78;;;15.33;100.00
39593;BME280;25286;48.870;9.084;2022-10-17T00:10:45;98528.13;;;15.32;100.00
39593;BME280;25286;48.870;9.084;2022-10-17T00:13:19;98520.34;;;15.29;100.00
39593;BME280;25286;48.870;9.084;2022-10-17T00:15:44;98523.94;;;15.30;100.00
39593;BME280;25286;48.870;9.084;2022-10-17T00:18:10;98525.88;;;15.29;100.00
39593;BME280;25286;48.870;9.084;2022-10-17T00:20:36;98527.53;;;15.30;100.00
39593;BME280;25286;48.870;9.084;2022-10-17T00:23:01;98535.53;;;15.27;100.00
39593;BME280;25286;48.870;9.084;2022-10-17T00:25:27;98539.75;;;15.34;100.00
39593;BME280;25286;48.870;9.084;2022-10-17T00:27:53;98529.19;;;15.26;100.00
39593;BME280;25286;48.870;9.084;2022-10-17T00:30:18;98540.75;;;15.23;100.00
39593;BME280;25286;48.870;9.084;2022-10-17T00:32:44;98531.53;;;15.12;100.00
39593;BME280;25286;48.870;9.084;2022-10-17T00:35:10;98535.91;;;15.08;100.00
39593;BME280;25286;48.870;9.084;2022-10-17T00:37:35;98531.16;;;15.04;100.00
39593;BME280;25286;48.870;9.084;2022-10-17T00:40:02;98530.25;;;14.98;100.00
39593;BME280;25286;48.870;9.084;2022-10-17T00:42:28;98531.13;;;14.98;100.00
39593;BME280;25286;48.870;9.084;2022-10-17T00:45:16;98530.81;;;14.95;100.00
39593;BME280;25286;48.870;9.084;2022-10-17T00:47:44;98535.44;;;14.89;100.00
39593;BME280;25286;48.870;9.084;2022-10-17T00:50:11;98529.38;;;14.92;100.00
39593;BME280;25286;48.870;9.084;2022-10-17T00:52:37;98536.78;;;14.87;100.00
39593;BME280;25286;48.870;9.084;2022-10-17T00:55:11;98540.28;;;14.77;100.00
39593;BME280;25286;48.870;9.084;2022-10-17T00:57:38;98539.75;;;14.80;100.00
39593;BME280;25286;48.870;9.084;2022-10-17T01:00:06;98538.34;;;14.78;100.00
39593;BME280;25286;48.870;9.084;2022-10-17T01:02:32;98534.69;;;14.72;100.00
39593;BME280;25286;48.870;9.084;2022-10-17T01:04:58;98537.78;;;14.76;100.00
39593;BME280;25286;48.870;9.084;2022-10-17T01:07:26;98537.97;;;14.69;100.00
39593;BME280;25286;48.870;9.084;2022-10-17T01:09:52;98548.19;;;14.68;100.00
39593;BME280;25286;48.870;9.084;2022-10-17T01:12:24;98542.53;;;14.58;100.00
39593;BME280;25286;48.870;9.084;2022-10-17T01:17:44;98544.25;;;14.64;100.00
39593;BME280;25286;48.870;9.084;2022-10-17T01:22:50;98542.41;;;14.48;100.00
39593;BME280;25286;48.870;9.084;2022-10-17T01:31:20;98543.16;;;14.43;100.00
39593;BME280;25286;48.870;9.084;2022-10-17T01:33:59;98539.66;;;14.48;100.00
39593;BME280;25286;48.870;9.084;2022-10-17T01:36:47;98541.72;;;14.41;100.00
39593;BME280;25286;48.870;9.084;2022-10-17T01:39:28;98546.97;;;14.42;100.00
39593;BME280;25286;48.870;9.084;2022-10-17T01:42:02;98546.16;;;14.42;100.00
39593;BME280;25286;48.870;9.084;2022-10-17T01:44:51;98549.75;;;14.42;100.00
39593;BME280;25286;48.870;9.084;2022-10-17T01:47:22;98542.63;;;14.46;100.00
39593;BME280;25286;48.870;9.084;2022-10-17T01:49:50;98537.09;;;14.46;100.00
39593;BME280;25286;48.870;9.084;2022-10-17T01:52:20;98539.53;;;14.43;100.00
39593;BME280;25286;48.870;9.084;2022-10-17T01:55:02;98534.28;;;14.41;100.00
39593;BME280;25286;48.870;9.084;2022-10-17T01:57:45;98543.44;;;14.47;100.00
39593;BME280;25286;48.870;9.084;2022-10-17T02:00:17;98536.47;;;14.39;100.00
39593;BME280;25286;48.870;9.084;2022-10-17T02:02:44;98537.88;;;14.42;100.00
39593;BME280;25286;48.870;9.084;2022-10-17T02:05:11;98525.22;;;14.46;100.00
39593;BME280;25286;48.870;9.084;2022-10-17T02:07:36;98524.91;;;14.42;100.00
39593;BME280;25286;48.870;9.084;2022-10-17T02:10:04;98531.50;;;14.41;100.00
39593;BME280;25286;48.870;9.084;2022-10-17T02:15:23;98530.75;;;14.46;100.00
39593;BME280;25286;48.870;9.084;2022-10-17T02:18:21;98530.94;;;14.39;100.00
39593;BME280;25286;48.870;9.084;2022-10-17T02:20:59;98529.72;;;14.30;100.00
39593;BME280;25286;48.870;9.084;2022-10-17T02:26:20;98535.25;;;14.30;100.00
39593;BME280;25286;48.870;9.084;2022-10-17T02:29:08;98536.00;;;14.26;100.00
39593;BME280;25286;48.870;9.084;2022-10-17T02:32:12;98532.44;;;14.25;100.00
39593;BME280;25286;48.870;9.084;2022-10-17T02:34:45;98541.47;;;14.20;100.00
39593;BME280;25286;48.870;9.084;2022-10-17T02:37:12;98545.28;;;14.19;100.00
39593;BME280;25286;48.870;9.084;2022-10-17T02:39:39;98546.66;;;14.17;100.00
39593;BME280;25286;48.870;9.084;2022-10-17T02:42:09;98536.38;;;14.12;100.00
39593;BME280;25286;48.870;9.084;2022-10-17T02:44:37;98547.16;;;14.14;100.00
39593;BME280;25286;48.870;9.084;2022-10-17T02:47:10;98541.84;;;14.07;100.00
39593;BME280;25286;48.870;9.084;2022-10-17T02:49:39;98547.59;;;14.06;100.00
39593;BME280;25286;48.870;9.084;2022-10-17T02:52:21;98531.63;;;14.08;100.00
39593;BME280;25286;48.870;9.084;2022-10-17T02:54:59;98542.00;;;14.01;100.00
39593;BME280;25286;48.870;9.084;2022-10-17T03:00:11;98542.00;;;14.01;100.00
39593;BME280;25286;48.870;9.084;2022-10-17T03:02:42;98541.94;;;13.95;100.00
39593;BME280;25286;48.870;9.084;2022-10-17T03:05:09;98545.72;;;13.89;100.00
39593;BME280;25286;48.870;9.084;2022-10-17T03:07:35;98537.66;;;13.88;100.00
39593;BME280;25286;48.870;9.084;2022-10-17T03:10:01;98533.78;;;13.84;100.00
39593;BME280;25286;48.870;9.084;2022-10-17T03:12:26;98542.34;;;13.87;100.00
39593;BME280;25286;48.870;9.084;2022-10-17T03:14:52;98533.84;;;13.89;100.00
39593;BME280;25286;48.870;9.084;2022-10-17T03:17:18;98540.41;;;13.88;100.00
39593;BME280;25286;48.870;9.084;2022-10-17T03:19:43;98545.28;;;13.81;100.00
39593;BME280;25286;48.870;9.084;2022-10-17T03:22:09;98544.97;;;13.77;100.00
39593;BME280;25286;48.870;9.084;2022-10-17T03:24:34;98540.78;;;13.75;100.00
39593;BME280;25286;48.870;9.084;2022-10-17T03:27:00;98549.31;;;13.73;100.00
39593;BME280;25286;48.870;9.084;2022-10-17T03:29:26;98551.16;;;13.67;100.00
39593;BME280;25286;48.870;9.084;2022-10-17T03:31:51;98546.13;;;13.64;100.00
39593;BME280;25286;48.870;9.084;2022-10-17T03:34:17;98546.97;;;13.65;100.00
39593;BME280;25286;48.870;9.084;2022-10-17T03:36:43;98542.03;;;13.67;100.00
39593;BME280;25286;48.870;9.084;2022-10-17T03:39:09;98546.97;;;13.65;100.00
39593;BME280;25286;48.870;9.084;2022-10-17T03:41:35;98546.72;;;13.66;100.00
39593;BME280;25286;48.870;9.084;2022-10-17T03:44:01;98543.06;;;13.61;100.00
39593;BME280;25286;48.870;9.084;2022-10-17T03:46:26;98541.13;;;13.61;100.00
39593;BME280;25286;48.870;9.084;2022-10-17T03:48:52;98548.72;;;13.54;100.00
39593;BME280;25286;48.870;9.084;2022-10-17T03:51:18;98551.34;;;13.61;100.00
39593;BME280;25286;48.870;9.084;2022-10-17T03:53:43;98546.13;;;13.64;100.00
39593;BME280;25286;48.870;9.084;2022-10-17T03:58:39;98552.75;;;13.63;100.00
39593;BME280;25286;48.870;9.084;2022-10-17T04:01:06;98556.00;;;13.60;100.00
39593;BME280;25286;48.870;9.084;2022-10-17T04:03:34;98562.78;;;13.53;100.00
39593;BME280;25286;48.870;9.084;2022-10-17T04:06:01;98569.78;;;13.60;100.00
39593;BME280;25286;48.870;9.084;2022-10-17T04:08:27;98576.38;;;13.59;100.00
39593;BME280;25286;48.870;9.084;2022-10-17T04:11:00;98571.13;;;13.58;100.00
39593;BME280;25286;48.870;9.084;2022-10-17T04:13:26;98579.13;;;13.59;100.00
39593;BME280;25286;48.870;9.084;2022-10-17T04:16:00;98573.97;;;13.63;100.00
39593;BME280;25286;48.870;9.084;2022-10-17T04:18:26;98579.06;;;13.54;100.00
39593;BME280;25286;48.870;9.084;2022-10-17T04:20:52;98572.47;;;13.38;100.00
39593;BME280;25286;48.870;9.084;2022-10-17T04:23:18;98584.47;;;13.32;100.00
39593;BME280;25286;48.870;9.084;2022-10-17T04:25:44;98589.06;;;13.27;100.00
39593;BME280;25286;48.870;9.084;2022-10-17T04:28:09;98585.47;;;13.26;100.00
39593;BME280;25286;48.870;9.084;2022-10-17T04:30:35;98601.41;;;13.24;100.00
39593;BME280;25286;48.870;9.084;2022-10-17T04:33:01;98595.66;;;13.14;100.00
39593;BME280;25286;48.870;9.084;2022-10-17T04:35:27;98595.09;;;13.12;100.00
39593;BME280;25286;48.870;9.084;2022-10-17T04:37:52;98594.47;;;13.10;100.00
39593;BME280;25286;48.870;9.084;2022-10-17T04:40:18;98598.84;;;13.06;100.00
39593;BME280;25286;48.870;9.084;2022-10-17T04:42:45;98599.91;;;13.05;100.00
39593;BME280;25286;48.870;9.084;2022-10-17T04:45:11;98596.75;;;13.13;100.00
39593;BME280;25286;48.870;9.084;2022-10-17T04:47:36;98594.69;;;13.20;100.00
39593;BME280;25286;48.870;9.084;2022-10-17T04:50:03;98595.91;;;13.24;100.00
39593;BME280;25286;48.870;9.084;2022-10-17T04:52:28;98596.00;;;13.29;100.00
39593;BME280;25286;48.870;9.084;2022-10-17T04:54:54;98591.25;;;13.41;100.00
39593;BME280;25286;48.870;9.084;2022-10-17T04:57:20;98589.09;;;13.43;100.00
39593;BME280;25286;48.870;9.084;2022-10-17T04:59:45;98592.66;;;13.44;100.00
39593;BME280;25286;48.870;9.084;2022-10-17T05:02:11;98595.78;;;13.47;100.00
39593;BME280;25286;48.870;9.084;2022-10-17T05:04:37;98601.59;;;13.51;100.00
39593;BME280;25286;48.870;9.084;2022-10-17T05:07:02;98593.59;;;13.50;100.00
39593;BME280;25286;48.870;9.084;2022-10-17T05:09:28;98595.94;;;13.58;100.00
39593;BME280;25286;48.870;9.084;2022-10-17T05:11:54;98600.84;;;13.56;100.00
39593;BME280;25286;48.870;9.084;2022-10-17T05:14:19;98589.94;;;13.61;100.00
39593;BME280;25286;48.870;9.084;2022-10-17T05:16:45;98595.25;;;13.51;100.00
39593;BME280;25286;48.870;9.084;2022-10-17T05:19:11;98595.59;;;13.54;100.00
39593;BME280;25286;48.870;9.084;2022-10-17T05:21:37;98602.94;;;13.48;100.00
39593;BME280;25286;48.870;9.084;2022-10-17T05:24:07;98597.09;;;13.45;100.00
39593;BME280;25286;48.870;9.084;2022-10-17T05:26:33;98590.91;;;13.38;100.00
39593;BME280;25286;48.870;9.084;2022-10-17T05:29:02;98594.00;;;13.41;100.00
39593;BME280;25286;48.870;9.084;2022-10-17T05:31:29;98589.44;;;13.47;100.00
39593;BME280;25286;48.870;9.084;2022-10-17T05:33:55;98594.25;;;13.40;100.00
39593;BME280;25286;48.870;9.084;2022-10-17T05:36:21;98593.34;;;13.34;100.00
39593;BME280;25286;48.870;9.084;2022-10-17T05:38:50;98595.56;;;13.37;100.00
39593;BME280;25286;48.870;9.084;2022-10-17T05:41:16;98598.66;;;13.41;100.00
39593;BME280;25286;48.870;9.084;2022-10-17T05:43:42;98601.59;;;13.51;100.00
39593;BME280;25286;48.870;9.084;2022-10-17T05:46:08;98607.47;;;13.55;100.00
39593;BME280;25286;48.870;9.084;2022-10-17T05:48:34;98599.72;;;13.52;100.00
39593;BME280;25286;48.870;9.084;2022-10-17T05:51:05;98600.28;;;13.54;100.00
39593;BME280;25286;48.870;9.084;2022-10-17T05:53:34;98611.81;;;13.51;100.00
39593;BME280;25286;48.870;9.084;2022-10-17T05:56:02;98615.91;;;13.48;100.00
39593;BME280;25286;48.870;9.084;2022-10-17T05:58:29;98606.28;;;13.51;100.00
39593;BME280;25286;48.870;9.084;2022-10-17T06:00:59;98606.88;;;13.53;100.00
39593;BME280;25286;48.870;9.084;2022-10-17T06:03:25;98606.28;;;13.51;100.00
39593;BME280;25286;48.870;9.084;2022-10-17T06:05:50;98603.44;;;13.45;100.00
39593;BME280;25286;48.870;9.084;2022-10-17T06:08:17;98612.31;;;13.47;100.00
39593;BME280;25286;48.870;9.084;2022-10-17T06:10:43;98623.16;;;13.54;100.00
39593;BME280;25286;48.870;9.084;2022-10-17T06:13:11;98621.03;;;13.56;100.00
39593;BME280;25286;48.870;9.084;2022-10-17T06:15:36;98617.50;;;13.61;100.00
39593;BME280;25286;48.870;9.084;2022-10-17T06:18:02;98614.75;;;13.61;100.00
39593;BME280;25286;48.870;9.084;2022-10-17T06:20:28;98606.88;;;13.53;100.00
39593;BME280;25286;48.870;9.084;2022-10-17T06:22:53;98607.38;;;13.50;100.00
39593;BME280;25286;48.870;9.084;2022-10-17T06:25:19;98616.66;;;13.43;100.00
39593;BME280;25286;48.870;9.084;2022-10-17T06:27:45;98622.44;;;13.59;100.00
39593;BME280;25286;48.870;9.084;2022-10-17T06:30:10;98620.84;;;13.63;100.00
39593;BME280;25286;48.870;9.084;2022-10-17T06:32:36;98625.28;;;13.64;100.00
39593;BME280;25286;48.870;9.084;2022-10-17T06:35:02;98635.28;;;13.53;100.00
39593;BME280;25286;48.870;9.084;2022-10-17T06:37:31;98633.63;;;13.52;100.00
39593;BME280;25286;48.870;9.084;2022-10-17T06:39:58;98642.13;;;13.51;100.00
39593;BME280;25286;48.870;9.084;2022-10-17T06:42:23;98659.63;;;13.56;100.00
39593;BME280;25286;48.870;9.084;2022-10-17T06:44:49;98669.72;;;13.22;100.00
39593;BME280;25286;48.870;9.084;2022-10-17T06:47:15;98675.06;;;13.57;100.00
39593;BME280;25286;48.870;9.084;2022-10-17T06:49:40;98669.47;;;13.52;100.00
39593;BME280;25286;48.870;9.084;2022-10-17T06:52:06;98672.19;;;13.81;100.00
39593;BME280;25286;48.870;9.084;2022-10-17T06:54:32;98682.22;;;14.04;100.00
39593;BME280;25286;48.870;9.084;2022-10-17T06:56:57;98688.59;;;14.21;100.00
39593;BME280;25286;48.870;9.084;2022-10-17T06:59:23;98688.06;;;14.58;100.00
39593;BME280;25286;48.870;9.084;2022-10-17T07:01:49;98683.56;;;14.52;100.00
39593;BME280;25286;48.870;9.084;2022-10-17T07:04:14;98679.25;;;14.61;100.00
39593;BME280;25286;48.870;9.084;2022-10-17T07:06:40;98686.75;;;14.82;100.00
39593;BME280;25286;48.870;9.084;2022-10-17T07:09:06;98700.13;;;14.90;100.00
39593;BME280;25286;48.870;9.084;2022-10-17T07:11:32;98692.47;;;14.97;99.93
39593;BME280;25286;48.870;9.084;2022-10-17T07:13:59;98698.16;;;15.08;99.00
39593;BME280;25286;48.870;9.084;2022-10-17T07:16:25;98699.63;;;15.15;98.50
39593;BME280;25286;48.870;9.084;2022-10-17T07:18:51;98694.09;;;15.15;98.18
39593;BME280;25286;48.870;9.084;2022-10-17T07:21:17;98692.34;;;15.31;98.00
39593;BME280;25286;48.870;9.084;2022-10-17T07:23:42;98692.97;;;15.38;97.44
39593;BME280;25286;48.870;9.084;2022-10-17T07:26:10;98699.16;;;15.45;97.19
39593;BME280;25286;48.870;9.084;2022-10-17T07:28:37;98696.44;;;15.50;97.24
39593;BME280;25286;48.870;9.084;2022-10-17T07:31:08;98700.97;;;15.62;97.06
39593;BME280;25286;48.870;9.084;2022-10-17T07:33:35;98700.81;;;15.68;97.59
39593;BME280;25286;48.870;9.084;2022-10-17T07:36:01;98707.44;;;15.67;98.43
39593;BME280;25286;48.870;9.084;2022-10-17T07:38:27;98703.06;;;15.71;98.88
39593;BME280;25286;48.870;9.084;2022-10-17T07:40:57;98702.53;;;15.74;98.57
39593;BME280;25286;48.870;9.084;2022-10-17T07:43:24;98712.81;;;15.79;98.97
39593;BME280;25286;48.870;9.084;2022-10-17T07:45:50;98708.44;;;15.83;98.44
39593;BME280;25286;48.870;9.084;2022-10-17T07:48:16;98701.84;;;15.89;98.14
39593;BME280;25286;48.870;9.084;2022-10-17T07:50:42;98705.56;;;16.00;97.42
39593;BME280;25286;48.870;9.084;2022-10-17T07:53:08;98709.72;;;16.02;96.73
39593;BME280;25286;48.870;9.084;2022-10-17T07:55:36;98710.88;;;16.07;95.95
39593;BME280;25286;48.870;9.084;2022-10-17T07:58:01;98707.25;;;16.06;95.61
39593;BME280;25286;48.870;9.084;2022-10-17T08:00:27;98712.06;;;16.16;95.87
39593;BME280;25286;48.870;9.084;2022-10-17T08:02:52;98719.41;;;16.32;95.58
39593;BME280;25286;48.870;9.084;2022-10-17T08:05:18;98711.72;;;16.44;95.35
39593;BME280;25286;48.870;9.084;2022-10-17T08:07:44;98707.31;;;16.48;95.97
39593;BME280;25286;48.870;9.084;2022-10-17T08:10:13;98705.72;;;16.58;96.14
39593;BME280;25286;48.870;9.084;2022-10-17T08:12:39;98710.22;;;16.64;95.80
39593;BME280;25286;48.870;9.084;2022-10-17T08:15:06;98712.41;;;16.62;95.35
39593;BME280;25286;48.870;9.084;2022-10-17T08:17:36;98707.84;;;16.77;95.71
39593;BME280;25286;48.870;9.084;2022-10-17T08:20:03;98714.81;;;16.90;95.92
39593;BME280;25286;48.870;9.084;2022-10-17T08:22:30;98712.38;;;16.99;95.58
39593;BME280;25286;48.870;9.084;2022-10-17T08:24:56;98717.09;;;16.98;95.72
39593;BME280;25286;48.870;9.084;2022-10-17T08:27:22;98715.47;;;17.02;95.76
39593;BME280;25286;48.870;9.084;2022-10-17T08:29:52;98711.59;;;17.09;95.46
39593;BME280;25286;48.870;9.084;2022-10-17T08:32:23;98720.53;;;17.21;94.97
39593;BME280;25286;48.870;9.084;2022-10-17T08:34:53;98730.28;;;17.23;93.96
39593;BME280;25286;48.870;9.084;2022-10-17T08:37:23;98726.94;;;17.32;92.70
39593;BME280;25286;48.870;9.084;2022-10-17T08:39:48;98728.34;;;17.29;91.74
39593;BME280;25286;48.870;9.084;2022-10-17T08:48:17;98717.63;;;17.63;91.71
39593;BME280;25286;48.870;9.084;2022-10-17T08:53:51;98733.22;;;17.69;89.53
39593;BME280;25286;48.870;9.084;2022-10-17T08:56:29;98735.50;;;17.83;88.62
39593;BME280;25286;48.870;9.084;2022-10-17T08:58:57;98737.47;;;17.87;87.76
39593;BME280;25286;48.870;9.084;2022-10-17T09:01:49;98738.59;;;17.96;87.22
39593;BME280;25286;48.870;9.084;2022-10-17T09:10:26;98729.69;;;18.10;86.32
39593;BME280;25286;48.870;9.084;2022-10-17T09:15:41;98718.91;;;18.34;87.87
39593;BME280;25286;48.870;9.084;2022-10-17T09:18:32;98723.03;;;18.62;86.91
39593;BME280;25286;48.870;9.084;2022-10-17T09:24:02;98726.09;;;18.81;85.25
39593;BME280;25286;48.870;9.084;2022-10-17T09:26:29;98726.06;;;18.91;85.88
39593;BME280;25286;48.870;9.084;2022-10-17T09:28:56;98726.66;;;18.93;85.24
39593;BME280;25286;48.870;9.084;2022-10-17T09:31:38;98730.00;;;18.79;85.13
39593;BME280;25286;48.870;9.084;2022-10-17T09:34:07;98730.28;;;18.83;83.93
39593;BME280;25286;48.870;9.084;2022-10-17T09:36:37;98724.13;;;18.86;84.75
39593;BME280;25286;48.870;9.084;2022-10-17T09:39:13;98722.44;;;19.00;84.92
39593;BME280;25286;48.870;9.084;2022-10-17T09:41:55;98726.03;;;19.16;82.04
39593;BME280;25286;48.870;9.084;2022-10-17T09:44:33;98715.41;;;19.23;82.64
39593;BME280;25286;48.870;9.084;2022-10-17T09:47:46;98717.31;;;19.38;82.39
39593;BME280;25286;48.870;9.084;2022-10-17T09:50:34;98722.53;;;19.50;82.03
39593;BME280;25286;48.870;9.084;2022-10-17T09:53:09;98720.56;;;19.66;80.55
39593;BME280;25286;48.870;9.084;2022-10-17T09:58:07;98712.16;;;19.76;79.53
39593;BME280;25286;48.870;9.084;2022-10-17T10:00:36;98714.63;;;19.77;78.22
39593;BME280;25286;48.870;9.084;2022-10-17T10:05:41;98723.19;;;19.91;80.29
39593;BME280;25286;48.870;9.084;2022-10-17T10:08:15;98723.19;;;19.91;79.16
39593;BME280;25286;48.870;9.084;2022-10-17T10:10:44;98711.34;;;20.10;78.64
39593;BME280;25286;48.870;9.084;2022-10-17T10:15:43;98715.38;;;20.33;78.09
39593;BME280;25286;48.870;9.084;2022-10-17T10:21:04;98724.03;;;20.31;78.41
39593;BME280;25286;48.870;9.084;2022-10-17T10:23:30;98730.09;;;20.38;78.66
39593;BME280;25286;48.870;9.084;2022-10-17T10:25:57;98729.22;;;20.43;78.56
39593;BME280;25286;48.870;9.084;2022-10-17T10:28:29;98725.06;;;20.40;77.49
39593;BME280;25286;48.870;9.084;2022-10-17T10:30:57;98736.41;;;20.54;76.85
39593;BME280;25286;48.870;9.084;2022-10-17T10:33:26;98742.56;;;20.51;76.96
39593;BME280;25286;48.870;9.084;2022-10-17T10:35:58;98729.69;;;20.55;76.97
39593;BME280;25286;48.870;9.084;2022-10-17T10:38:26;98731.56;;;20.65;76.69
39593;BME280;25286;48.870;9.084;2022-10-17T10:40:54;98734.91;;;20.67;75.75
39593;BME280;25286;48.870;9.084;2022-10-17T10:43:32;98734.50;;;20.78;73.66
39593;BME280;25286;48.870;9.084;2022-10-17T10:45:59;98734.06;;;20.95;72.44
39593;BME280;25286;48.870;9.084;2022-10-17T10:48:34;98729.38;;;21.15;68.10
39593;BME280;25286;48.870;9.084;2022-10-17T10:59:05;98726.84;;;21.42;67.67
39593;BME280;25286;48.870;9.084;2022-10-17T11:02:37;98728.34;;;21.59;68.21
39593;BME280;25286;48.870;9.084;2022-10-17T11:10:20;98716.44;;;21.91;63.10
39593;BME280;25286;48.870;9.084;2022-10-17T11:15:39;98719.94;;;22.20;60.97
39593;BME280;25286;48.870;9.084;2022-10-17T11:18:19;98715.78;;;22.18;61.97
39593;BME280;25286;48.870;9.084;2022-10-17T11:21:04;98722.72;;;22.20;61.00
39593;BME280;25286;48.870;9.084;2022-10-17T11:23:47;98720.00;;;22.34;60.80
39593;BME280;25286;48.870;9.084;2022-10-17T11:26:25;98722.84;;;22.48;60.64
39593;BME280;25286;48.870;9.084;2022-10-17T11:28:55;98716.88;;;22.54;58.99
39593;BME280;25286;48.870;9.084;2022-10-17T11:31:23;98723.19;;;22.60;58.50
39593;BME280;25286;48.870;9.084;2022-10-17T11:34:05;98721.03;;;22.71;59.77
39593;BME280;25286;48.870;9.084;2022-10-17T11:36:35;98720.47;;;22.88;58.09
39593;BME280;25286;48.870;9.084;2022-10-17T11:39:06;98724.09;;;22.88;58.36
39593;BME280;25286;48.870;9.084;2022-10-17T11:41:48;98721.84;;;22.90;58.31
39593;BME280;25286;48.870;9.084;2022-10-17T11:47:00;98726.13;;;23.01;58.16
39593;BME280;25286;48.870;9.084;2022-10-17T11:49:31;98727.91;;;23.11;58.20
39593;BME280;25286;48.870;9.084;2022-10-17T11:52:38;98731.31;;;23.08;57.74
39593;BME280;25286;48.870;9.084;2022-10-17T11:55:18;98728.94;;;23.15;57.72
39593;BME280;25286;48.870;9.084;2022-10-17T11:57:56;98726.88;;;23.21;58.80
39593;BME280;25286;48.870;9.084;2022-10-17T12:11:48;98721.38;;;23.71;58.91
39593;BME280;25286;48.870;9.084;2022-10-17T12:17:27;98720.19;;;23.99;58.50
39593;BME280;25286;48.870;9.084;2022-10-17T12:20:09;98712.25;;;23.79;57.18
39593;BME280;25286;48.870;9.084;2022-10-17T12:22:52;98717.06;;;24.01;57.06
39593;BME280;25286;48.870;9.084;2022-10-17T12:25:20;98721.66;;;23.97;57.89
39593;BME280;25286;48.870;9.084;2022-10-17T12:27:47;98713.91;;;24.16;58.95
39593;BME280;25286;48.870;9.084;2022-10-17T12:35:31;98733.91;;;23.46;67.66
39593;BME280;25286;48.870;9.084;2022-10-17T12:51:17;98720.88;;;28.94;47.32
39593;BME280;25286;48.870;9.084;2022-10-17T12:53:48;98722.19;;;28.63;46.43
39593;BME280;25286;48.870;9.084;2022-10-17T12:56:40;98723.34;;;26.68;50.61
39593;BME280;25286;48.870;9.084;2022-10-17T12:59:20;98727.97;;;27.45;48.04
39593;BME280;25286;48.870;9.084;2022-10-17T13:01:48;98725.78;;;27.51;48.88
39593;BME280;25286;48.870;9.084;2022-10-17T13:04:15;98722.69;;;26.36;49.83
39593;BME280;25286;48.870;9.084;2022-10-17T13:06:47;98733.47;;;26.51;50.45
39593;BME280;25286;48.870;9.084;2022-10-17T13:09:50;98728.09;;;27.10;49.62
39593;BME280;25286;48.870;9.084;2022-10-17T13:12:15;98734.53;;;27.02;49.18
39593;BME280;25286;48.870;9.084;2022-10-17T13:14:42;98731.47;;;26.60;49.88
39593;BME280;25286;48.870;9.084;2022-10-17T13:17:25;98742.50;;;27.09;48.78
39593;BME280;25286;48.870;9.084;2022-10-17T13:19:52;98749.97;;;27.52;48.53
39593;BME280;25286;48.870;9.084;2022-10-17T13:22:20;98752.44;;;27.92;47.43
39593;BME280;25286;48.870;9.084;2022-10-17T13:24:47;98748.97;;;26.92;49.86
39593;BME280;25286;48.870;9.084;2022-10-17T13:27:28;98748.03;;;26.53;50.06
39593;BME280;25286;48.870;9.084;2022-10-17T13:29:56;98749.81;;;26.93;49.24
39593;BME280;25286;48.870;9.084;2022-10-17T13:32:23;98739.78;;;26.48;48.90
39593;BME280;25286;48.870;9.084;2022-10-17T13:35:09;98754.44;;;26.80;49.01
39593;BME280;25286;48.870;9.084;2022-10-17T13:37:36;98753.94;;;26.08;49.71
39593;BME280;25286;48.870;9.084;2022-10-17T13:40:03;98749.28;;;25.95;49.63
39593;BME280;25286;48.870;9.084;2022-10-17T13:42:35;98756.13;;;25.23;50.14
39593;BME280;25286;48.870;9.084;2022-10-17T13:45:01;98756.34;;;25.35;50.74
39593;BME280;25286;48.870;9.084;2022-10-17T13:47:29;98762.63;;;24.79;51.60
39593;BME280;25286;48.870;9.084;2022-10-17T13:49:57;98771.47;;;24.36;52.82
39593;BME280;25286;48.870;9.084;2022-10-17T13:52:25;98762.97;;;23.91;53.32
39593;BME280;25286;48.870;9.084;2022-10-17T13:54:52;98768.19;;;23.70;53.44
39593;BME280;25286;48.870;9.084;2022-10-17T13:57:25;98772.19;;;23.37;54.21
39593;BME280;25286;48.870;9.084;2022-10-17T14:00:06;98773.94;;;23.19;54.92
39593;BME280;25286;48.870;9.084;2022-10-17T14:02:35;98770.94;;;22.82;56.35
39593;BME280;25286;48.870;9.084;2022-10-17T14:07:56;98771.31;;;22.76;56.70
39593;BME280;25286;48.870;9.084;2022-10-17T14:12:50;98772.38;;;22.80;57.29
39593;BME280;25286;48.870;9.084;2022-10-17T14:15:16;98770.44;;;22.62;57.12
39593;BME280;25286;48.870;9.084;2022-10-17T14:17:43;98772.25;;;22.52;58.02
39593;BME280;25286;48.870;9.084;2022-10-17T14:20:18;98774.69;;;22.40;58.75
39593;BME280;25286;48.870;9.084;2022-10-17T14:22:44;98770.00;;;22.36;59.82
39593;BME280;25286;48.870;9.084;2022-10-17T14:27:54;98771.53;;;22.28;58.98
39593;BME280;25286;48.870;9.084;2022-10-17T14:32:51;98759.72;;;22.31;58.28
39593;BME280;25286;48.870;9.084;2022-10-17T14:35:19;98772.28;;;22.33;58.14
39593;BME280;25286;48.870;9.084;2022-10-17T14:37:46;98769.19;;;22.35;58.62
39593;BME280;25286;48.870;9.084;2022-10-17T14:40:18;98774.16;;;22.38;58.51
39593;BME280;25286;48.870;9.084;2022-10-17T14:42:44;98766.28;;;22.40;58.50
39593;BME280;25286;48.870;9.084;2022-10-17T14:45:16;98763.06;;;22.33;57.84
39593;BME280;25286;48.870;9.084;2022-10-17T14:47:49;98761.69;;;22.30;58.35
39593;BME280;25286;48.870;9.084;2022-10-17T14:50:24;98765.88;;;22.33;57.75
39593;BME280;25286;48.870;9.084;2022-10-17T14:55:36;98772.28;;;22.33;58.34
39593;BME280;25286;48.870;9.084;2022-10-17T14:58:15;98761.50;;;22.27;58.47
39593;BME280;25286;48.870;9.084;2022-10-17T15:00:41;98766.47;;;22.30;58.21
39593;BME280;25286;48.870;9.084;2022-10-17T15:03:07;98769.25;;;22.30;59.05
39593;BME280;25286;48.870;9.084;2022-10-17T15:05:33;98771.63;;;22.23;59.59
39593;BME280;25286;48.870;9.084;2022-10-17T15:07:59;98773.88;;;22.21;59.20